Time;durP1;ratioP1;P1;durP2;ratioP2;P2;SDS_P1;SDS_P2;PMS_P1;PMS_P2;Temp;Humidity;BMP_temperature;BMP_pressure;BME280_temperature;BME280_humidity;BME280_pressure;Samples;Min_cycle;Max_cycle;Signal;HPM_P1;HPM_P2
2023/12/06 00:00:29;;;;;;;1.13;0.80;;;;;;;;;;5075692;28;20082;-26
2023/12/06 00:02:55;;;;;;;3.80;1.10;;;;;;;;;;5075324;28;20126;-29
2023/12/06 00:05:21;;;;;;;1.75;0.80;;;;;;;;;;5075607;28;20099;-28
2023/12/06 00:07:47;;;;;;;2.38;1.83;;;;;;;;;;5075288;28;20055;-26
2023/12/06 00:10:13;;;;;;;2.17;0.95;;;;;;;;;;5075560;28;20024;-24
2023/12/06 00:12:39;;;;;;;2.42;1.00;;;;;;;;;;5075330;28;20025;-23
2023/12/06 00:15:06;;;;;;;1.45;1.10;;;;;;;;;;5074121;28;20047;-28
2023/12/06 00:17:32;;;;;;;4.35;1.17;;;;;;;;;;5075098;28;20020;-27
2023/12/06 00:19:58;;;;;;;3.63;1.15;;;;;;;;;;5075388;28;20333;-28
2023/12/06 00:22:25;;;;;;;3.72;1.40;;;;;;;;;;5075004;28;20027;-25
2023/12/06 00:24:53;;;;;;;4.13;2.15;;;;;;;;;;5075032;28;20021;-24
2023/12/06 00:27:20;;;;;;;1.70;1.55;;;;;;;;;;5074992;28;20052;-27
2023/12/06 00:29:46;;;;;;;4.18;1.05;;;;;;;;;;5075237;28;20342;-26
2023/12/06 00:32:12;;;;;;;1.52;1.02;;;;;;;;;;5075100;28;20029;-24
2023/12/06 00:34:38;;;;;;;2.10;1.25;;;;;;;;;;5074915;28;20024;-24
2023/12/06 00:37:04;;;;;;;1.65;1.20;;;;;;;;;;5075037;28;20451;-26
2023/12/06 00:39:31;;;;;;;4.30;2.97;;;;;;;;;;5075086;28;20413;-27
2023/12/06 00:41:57;;;;;;;1.70;1.35;;;;;;;;;;5073782;28;20051;-27
2023/12/06 00:44:23;;;;;;;2.25;1.00;;;;;;;;;;5074740;28;20093;-25
2023/12/06 00:46:49;;;;;;;1.65;1.40;;;;;;;;;;5074332;28;20028;-24
2023/12/06 00:49:18;;;;;;;3.25;1.13;;;;;;;;;;5074934;28;20095;-26
2023/12/06 00:51:44;;;;;;;1.75;1.33;;;;;;;;;;5074649;28;20075;-25
2023/12/06 00:54:11;;;;;;;1.23;1.00;;;;;;;;;;5074906;28;20028;-25
2023/12/06 00:56:37;;;;;;;5.10;2.03;;;;;;;;;;5074552;28;20106;-27
2023/12/06 00:59:04;;;;;;;1.65;1.35;;;;;;;;;;5074624;28;20481;-27
2023/12/06 01:01:30;;;;;;;1.83;0.93;;;;;;;;;;5074851;28;20344;-27
2023/12/06 01:03:57;;;;;;;1.92;1.13;;;;;;;;;;5074570;28;20059;-26
2023/12/06 01:06:23;;;;;;;2.15;1.15;;;;;;;;;;5073494;28;20024;-27
2023/12/06 01:08:50;;;;;;;1.58;1.13;;;;;;;;;;5074770;28;20020;-25
2023/12/06 01:11:16;;;;;;;1.33;1.23;;;;;;;;;;5074486;28;20025;-24
2023/12/06 01:13:42;;;;;;;3.10;1.40;;;;;;;;;;5074440;28;20032;-26
2023/12/06 01:16:08;;;;;;;1.95;0.90;;;;;;;;;;5074385;28;20105;-28
2023/12/06 01:18:35;;;;;;;1.95;1.20;;;;;;;;;;5074418;28;20032;-27
2023/12/06 01:21:01;;;;;;;1.00;0.90;;;;;;;;;;5074403;28;20035;-26
2023/12/06 01:23:27;;;;;;;3.53;1.02;;;;;;;;;;5074304;28;20048;-25
2023/12/06 01:25:53;;;;;;;1.27;1.02;;;;;;;;;;5074347;28;20024;-26
2023/12/06 01:28:20;;;;;;;1.95;1.27;;;;;;;;;;5074595;28;20085;-26
2023/12/06 01:30:47;;;;;;;3.58;0.90;;;;;;;;;;5074543;28;20024;-24
2023/12/06 01:33:14;;;;;;;2.92;0.88;;;;;;;;;;5074208;28;20107;-27
2023/12/06 01:35:40;;;;;;;2.42;1.02;;;;;;;;;;5074430;28;20029;-27
2023/12/06 01:38:06;;;;;;;1.92;1.15;;;;;;;;;;5073298;28;20055;-26
2023/12/06 01:40:36;;;;;;;1.20;0.70;;;;;;;;;;5074472;28;20024;-28
2023/12/06 01:43:02;;;;;;;4.28;1.10;;;;;;;;;;5074137;28;20341;-25
2023/12/06 01:45:29;;;;;;;0.90;0.90;;;;;;;;;;5074152;28;20052;-26
2023/12/06 01:47:55;;;;;;;2.00;1.23;;;;;;;;;;5074423;28;20036;-27
2023/12/06 01:50:21;;;;;;;1.08;1.00;;;;;;;;;;5074115;28;20513;-27
2023/12/06 01:52:48;;;;;;;1.83;1.30;;;;;;;;;;5074252;28;20020;-26
2023/12/06 01:55:14;;;;;;;1.38;1.02;;;;;;;;;;5074021;28;20063;-24
2023/12/06 01:57:41;;;;;;;3.78;1.63;;;;;;;;;;5075631;28;20143;-25
2023/12/06 02:00:07;;;;;;;2.60;1.20;;;;;;;;;;5077810;28;20036;-24
2023/12/06 02:02:34;;;;;;;2.25;1.20;;;;;;;;;;5077504;28;20429;-29
2023/12/06 02:05:01;;;;;;;3.08;1.17;;;;;;;;;;5078027;28;20081;-28
2023/12/06 02:07:27;;;;;;;0.90;0.90;;;;;;;;;;5077907;28;20077;-27
2023/12/06 02:09:54;;;;;;;2.65;1.00;;;;;;;;;;5077621;28;20095;-27
2023/12/06 02:12:20;;;;;;;2.28;1.35;;;;;;;;;;5077668;28;20040;-26
2023/12/06 02:14:46;;;;;;;1.40;1.30;;;;;;;;;;5077515;28;20023;-25
2023/12/06 02:17:13;;;;;;;1.55;1.17;;;;;;;;;;5077606;28;20038;-25
2023/12/06 02:19:40;;;;;;;2.20;1.20;;;;;;;;;;5077690;28;20337;-27
2023/12/06 02:22:06;;;;;;;1.42;1.20;;;;;;;;;;5077322;28;20028;-26
2023/12/06 02:24:33;;;;;;;2.47;1.77;;;;;;;;;;5076389;28;20031;-28
2023/12/06 02:27:00;;;;;;;1.58;0.90;;;;;;;;;;5077288;28;20036;-26
2023/12/06 02:29:26;;;;;;;2.88;1.42;;;;;;;;;;5077280;28;20091;-26
2023/12/06 02:31:52;;;;;;;4.70;1.05;;;;;;;;;;5077373;28;20033;-23
2023/12/06 02:34:21;;;;;;;1.77;1.20;;;;;;;;;;5077416;28;20025;-23
2023/12/06 02:36:49;;;;;;;3.17;1.02;;;;;;;;;;5077043;28;20437;-27
2023/12/06 02:39:17;;;;;;;1.20;1.10;;;;;;;;;;5077338;28;20013;-27
2023/12/06 02:41:43;;;;;;;1.27;1.17;;;;;;;;;;5076946;28;20029;-27
2023/12/06 02:44:09;;;;;;;1.50;1.20;;;;;;;;;;5077259;28;20390;-24
2023/12/06 02:46:37;;;;;;;1.23;1.13;;;;;;;;;;5076992;28;20024;-23
2023/12/06 02:49:03;;;;;;;2.08;1.30;;;;;;;;;;5077211;28;20039;-25
2023/12/06 02:51:29;;;;;;;1.83;1.27;;;;;;;;;;5076878;28;20025;-24
2023/12/06 02:53:55;;;;;;;4.13;1.65;;;;;;;;;;5076755;28;20032;-26
2023/12/06 02:56:22;;;;;;;1.25;1.10;;;;;;;;;;5076670;28;20029;-27
2023/12/06 02:58:48;;;;;;;2.67;1.73;;;;;;;;;;5076723;28;20021;-27
2023/12/06 03:01:14;;;;;;;1.90;1.20;;;;;;;;;;5076700;28;20021;-27
2023/12/06 03:03:40;;;;;;;2.40;1.45;;;;;;;;;;5075402;28;20075;-24
2023/12/06 03:06:06;;;;;;;1.45;1.23;;;;;;;;;;5076565;28;20077;-26
2023/12/06 03:08:32;;;;;;;1.63;1.27;;;;;;;;;;5076433;28;20034;-27
2023/12/06 03:10:59;;;;;;;2.17;1.10;;;;;;;;;;5076485;28;20051;-28
2023/12/06 03:13:26;;;;;;;1.15;1.05;;;;;;;;;;5076292;28;20052;-27
2023/12/06 03:15:52;;;;;;;5.90;2.00;;;;;;;;;;5075376;28;20463;-27
2023/12/06 03:18:18;;;;;;;2.33;1.40;;;;;;;;;;5076648;28;20325;-25
2023/12/06 03:20:45;;;;;;;2.40;1.40;;;;;;;;;;5076342;28;20415;-25
2023/12/06 03:23:11;;;;;;;1.60;1.27;;;;;;;;;;5076437;28;20123;-25
2023/12/06 03:25:37;;;;;;;1.45;0.90;;;;;;;;;;5076202;28;20025;-27
2023/12/06 03:28:03;;;;;;;1.88;1.30;;;;;;;;;;5076102;28;20033;-28
2023/12/06 03:30:30;;;;;;;2.38;1.33;;;;;;;;;;5076127;28;20082;-28
2023/12/06 03:32:56;;;;;;;2.83;2.08;;;;;;;;;;5076267;28;20107;-25
2023/12/06 03:35:22;;;;;;;1.10;1.00;;;;;;;;;;5076217;28;20347;-24
2023/12/06 03:37:48;;;;;;;1.75;1.63;;;;;;;;;;5076236;28;20051;-28
2023/12/06 03:40:14;;;;;;;4.25;1.35;;;;;;;;;;5075917;28;20020;-28
2023/12/06 03:42:41;;;;;;;2.03;1.10;;;;;;;;;;5076035;28;20017;-26
2023/12/06 03:45:07;;;;;;;1.80;1.38;;;;;;;;;;5075786;28;20050;-26
2023/12/06 03:47:33;;;;;;;1.95;1.20;;;;;;;;;;5075757;28;20471;-24
2023/12/06 03:49:59;;;;;;;3.03;1.23;;;;;;;;;;5076089;28;20364;-25
2023/12/06 03:52:26;;;;;;;1.35;1.10;;;;;;;;;;5075546;28;20024;-27
2023/12/06 03:54:52;;;;;;;1.40;1.30;;;;;;;;;;5075942;28;20024;-28
2023/12/06 03:57:18;;;;;;;5.20;1.77;;;;;;;;;;5074904;28;20422;-28
2023/12/06 03:59:44;;;;;;;1.33;1.23;;;;;;;;;;5075782;28;20085;-25
2023/12/06 04:02:10;;;;;;;1.55;1.42;;;;;;;;;;5075171;28;20024;-23
2023/12/06 04:04:36;;;;;;;1.60;1.50;;;;;;;;;;5075405;28;20085;-25
2023/12/06 04:07:03;;;;;;;2.00;1.40;;;;;;;;;;5075349;28;20032;-28
2023/12/06 04:09:29;;;;;;;1.35;1.25;;;;;;;;;;5075351;28;20546;-26
2023/12/06 04:11:56;;;;;;;2.13;1.50;;;;;;;;;;5075257;28;20367;-25
2023/12/06 04:14:22;;;;;;;1.55;1.10;;;;;;;;;;5075270;28;20052;-25
2023/12/06 04:16:49;;;;;;;2.00;1.42;;;;;;;;;;5075664;28;20020;-27
2023/12/06 04:19:16;;;;;;;1.17;1.15;;;;;;;;;;5075011;28;20013;-23
2023/12/06 04:21:42;;;;;;;2.22;1.58;;;;;;;;;;5074792;28;20017;-25
2023/12/06 04:24:08;;;;;;;3.47;1.20;;;;;;;;;;5074947;28;20024;-28
2023/12/06 04:26:34;;;;;;;2.30;1.88;;;;;;;;;;5074936;28;20507;-27
2023/12/06 04:29:00;;;;;;;3.72;1.70;;;;;;;;;;5074933;28;20036;-26
2023/12/06 04:31:27;;;;;;;4.72;1.83;;;;;;;;;;5073917;28;20028;-24
2023/12/06 04:33:53;;;;;;;1.35;1.25;;;;;;;;;;5075141;28;20372;-24
2023/12/06 04:36:19;;;;;;;2.58;1.67;;;;;;;;;;5074810;28;20028;-27
2023/12/06 04:38:46;;;;;;;1.30;1.20;;;;;;;;;;5074830;28;20021;-28
2023/12/06 04:41:12;;;;;;;1.40;1.30;;;;;;;;;;5074764;28;20036;-24
2023/12/06 04:43:38;;;;;;;2.42;1.20;;;;;;;;;;5074958;28;20044;-26
2023/12/06 04:46:04;;;;;;;4.90;1.80;;;;;;;;;;5075000;28;20095;-23
2023/12/06 04:48:30;;;;;;;1.83;1.27;;;;;;;;;;5074976;28;20028;-23
2023/12/06 04:50:56;;;;;;;3.40;1.30;;;;;;;;;;5074713;28;20036;-28
2023/12/06 04:53:23;;;;;;;2.47;1.85;;;;;;;;;;5074718;28;20482;-28
2023/12/06 04:55:49;;;;;;;1.65;1.55;;;;;;;;;;5074531;28;20029;-28
2023/12/06 04:58:15;;;;;;;1.35;1.25;;;;;;;;;;5074599;28;20024;-26
2023/12/06 05:00:43;;;;;;;1.85;1.38;;;;;;;;;;5074812;28;20161;-24
2023/12/06 05:03:10;;;;;;;3.13;1.10;;;;;;;;;;5074456;28;20379;-24
2023/12/06 05:05:36;;;;;;;1.40;1.17;;;;;;;;;;5074771;28;20032;-25
2023/12/06 05:08:03;;;;;;;2.03;0.90;;;;;;;;;;5074773;28;20132;-25
2023/12/06 05:10:29;;;;;;;2.35;1.50;;;;;;;;;;5074687;28;20090;-25
2023/12/06 05:12:57;;;;;;;3.55;1.23;;;;;;;;;;5073378;28;20105;-26
2023/12/06 05:15:23;;;;;;;2.72;1.30;;;;;;;;;;5074275;28;20025;-25
2023/12/06 05:17:49;;;;;;;7.70;1.80;;;;;;;;;;5074588;28;20020;-28
2023/12/06 05:20:16;;;;;;;2.08;1.30;;;;;;;;;;5074482;28;20111;-26
2023/12/06 05:22:42;;;;;;;7.18;1.38;;;;;;;;;;5074088;28;20149;-28
2023/12/06 05:25:09;;;;;;;3.80;1.25;;;;;;;;;;5074372;28;20367;-27
2023/12/06 05:27:35;;;;;;;3.33;1.73;;;;;;;;;;5074128;28;20025;-26
2023/12/06 05:30:01;;;;;;;1.83;1.33;;;;;;;;;;5073114;28;20028;-23
2023/12/06 05:32:27;;;;;;;2.88;1.58;;;;;;;;;;5076986;28;20204;-25
2023/12/06 05:34:53;;;;;;;1.98;1.50;;;;;;;;;;5078121;28;20332;-27
2023/12/06 05:37:19;;;;;;;1.83;1.40;;;;;;;;;;5077932;28;20355;-28
2023/12/06 05:39:46;;;;;;;3.60;1.50;;;;;;;;;;5078013;28;20024;-27
2023/12/06 05:42:12;;;;;;;3.53;1.27;;;;;;;;;;5078155;28;20012;-25
2023/12/06 05:44:39;;;;;;;2.53;1.33;;;;;;;;;;5077984;28;20020;-27
2023/12/06 05:47:05;;;;;;;1.73;1.52;;;;;;;;;;5077872;28;20099;-27
2023/12/06 05:49:31;;;;;;;4.45;1.27;;;;;;;;;;5077708;28;20105;-27
2023/12/06 05:51:57;;;;;;;2.55;1.17;;;;;;;;;;5077754;28;20096;-25
2023/12/06 05:54:23;;;;;;;2.28;1.48;;;;;;;;;;5077830;28;20525;-31
2023/12/06 05:56:49;;;;;;;3.58;1.70;;;;;;;;;;5077626;28;20421;-25
2023/12/06 05:59:16;;;;;;;3.63;2.10;;;;;;;;;;5077674;28;20055;-27
2023/12/06 06:01:42;;;;;;;7.32;1.90;;;;;;;;;;5077477;28;20056;-27
2023/12/06 06:04:08;;;;;;;6.78;1.52;;;;;;;;;;5077270;28;20059;-27
2023/12/06 06:06:37;;;;;;;1.77;1.00;;;;;;;;;;5077762;28;20020;-24
2023/12/06 06:09:03;;;;;;;1.90;1.60;;;;;;;;;;5077601;28;20363;-27
2023/12/06 06:11:30;;;;;;;2.60;1.50;;;;;;;;;;5077484;28;20063;-25
2023/12/06 06:13:56;;;;;;;2.25;1.60;;;;;;;;;;5077404;28;20024;-25
2023/12/06 06:16:23;;;;;;;2.63;1.33;;;;;;;;;;5077848;28;20029;-25
2023/12/06 06:18:49;;;;;;;2.08;1.50;;;;;;;;;;5077296;28;20042;-27
2023/12/06 06:21:15;;;;;;;2.72;1.48;;;;;;;;;;5077239;28;20455;-27
2023/12/06 06:23:43;;;;;;;2.40;1.35;;;;;;;;;;5077191;28;20024;-27
2023/12/06 06:26:09;;;;;;;2.92;1.58;;;;;;;;;;5077358;28;20020;-28
2023/12/06 06:28:36;;;;;;;4.63;1.65;;;;;;;;;;5077139;28;20021;-27
2023/12/06 06:31:02;;;;;;;2.85;1.88;;;;;;;;;;5077065;28;20104;-28
2023/12/06 06:33:28;;;;;;;4.90;1.75;;;;;;;;;;5075769;28;20020;-24
2023/12/06 06:35:54;;;;;;;3.70;1.42;;;;;;;;;;5075682;28;20047;-25
2023/12/06 06:38:21;;;;;;;4.07;1.77;;;;;;;;;;5076720;28;20083;-26
2023/12/06 06:40:47;;;;;;;4.32;1.40;;;;;;;;;;5076809;28;20016;-27
2023/12/06 06:43:13;;;;;;;3.75;1.95;;;;;;;;;;5075917;28;20115;-27
2023/12/06 06:45:43;;;;;;;2.17;1.63;;;;;;;;;;5076563;28;20032;-24
2023/12/06 06:48:12;;;;;;;1.63;1.33;;;;;;;;;;5076719;28;20046;-28
2023/12/06 06:50:38;;;;;;;3.40;1.73;;;;;;;;;;5076855;28;20355;-25
2023/12/06 06:53:04;;;;;;;2.78;1.63;;;;;;;;;;5076671;28;20115;-27
2023/12/06 06:55:30;;;;;;;2.58;1.42;;;;;;;;;;5076865;28;20052;-27
2023/12/06 06:57:58;;;;;;;1.75;1.65;;;;;;;;;;5076618;28;20025;-26
2023/12/06 07:00:25;;;;;;;5.50;1.48;;;;;;;;;;5075619;28;20016;-27
2023/12/06 07:02:51;;;;;;;2.95;1.70;;;;;;;;;;5076270;28;20061;-27
2023/12/06 07:05:17;;;;;;;3.25;1.50;;;;;;;;;;5076518;28;20017;-27
2023/12/06 07:07:43;;;;;;;3.17;1.30;;;;;;;;;;5076533;28;20028;-26
2023/12/06 07:10:10;;;;;;;1.67;1.58;;;;;;;;;;5076311;28;20024;-26
2023/12/06 07:12:37;;;;;;;1.80;1.50;;;;;;;;;;5076055;28;20073;-26
2023/12/06 07:15:03;;;;;;;3.50;1.75;;;;;;;;;;5076343;28;20062;-24
2023/12/06 07:17:32;;;;;;;2.47;2.17;;;;;;;;;;5076231;28;20043;-26
2023/12/06 07:19:58;;;;;;;2.05;1.48;;;;;;;;;;5075042;28;20447;-25
2023/12/06 07:22:25;;;;;;;5.47;1.30;;;;;;;;;;5076153;28;20024;-25
2023/12/06 07:24:51;;;;;;;5.95;2.75;;;;;;;;;;5074807;28;20024;-28
2023/12/06 07:27:17;;;;;;;1.38;1.20;;;;;;;;;;5076050;28;20020;-27
2023/12/06 07:29:43;;;;;;;2.53;1.58;;;;;;;;;;5075954;28;20043;-25
2023/12/06 07:32:10;;;;;;;3.13;1.27;;;;;;;;;;5075749;28;20451;-27
2023/12/06 07:34:36;;;;;;;3.60;1.38;;;;;;;;;;5075660;28;20032;-26
2023/12/06 07:37:02;;;;;;;3.55;1.40;;;;;;;;;;5075799;28;20086;-26
2023/12/06 07:39:28;;;;;;;5.22;1.88;;;;;;;;;;5074622;28;20112;-25
2023/12/06 07:41:54;;;;;;;2.50;1.77;;;;;;;;;;5075721;28;20020;-25
2023/12/06 07:44:22;;;;;;;2.88;1.70;;;;;;;;;;5075516;28;20043;-28
2023/12/06 07:46:48;;;;;;;2.08;1.80;;;;;;;;;;5075365;28;20028;-27
2023/12/06 07:49:15;;;;;;;9.25;2.20;;;;;;;;;;5075693;28;20020;-25
2023/12/06 07:51:42;;;;;;;4.30;2.05;;;;;;;;;;5075999;28;20024;-28
2023/12/06 07:54:09;;;;;;;6.00;1.65;;;;;;;;;;5074188;28;20090;-26
2023/12/06 07:56:35;;;;;;;5.03;1.55;;;;;;;;;;5075046;28;20031;-25
2023/12/06 07:59:02;;;;;;;3.15;1.38;;;;;;;;;;5074414;28;20021;-26
2023/12/06 08:01:31;;;;;;;2.72;1.40;;;;;;;;;;5074328;28;20066;-25
2023/12/06 08:04:03;;;;;;;2.60;1.92;;;;;;;;;;5075032;28;20049;-26
2023/12/06 08:06:31;;;;;;;2.85;1.52;;;;;;;;;;5075309;28;20455;-26
2023/12/06 08:08:58;;;;;;;2.58;1.40;;;;;;;;;;5075250;28;20029;-26
2023/12/06 08:11:25;;;;;;;4.20;1.30;;;;;;;;;;5074988;28;20047;-27
2023/12/06 08:13:52;;;;;;;3.53;1.70;;;;;;;;;;5074886;28;20051;-27
2023/12/06 08:16:18;;;;;;;3.45;1.50;;;;;;;;;;5074903;28;20347;-26
2023/12/06 08:18:44;;;;;;;6.82;1.83;;;;;;;;;;5074831;28;20024;-26
2023/12/06 08:21:10;;;;;;;7.93;1.42;;;;;;;;;;5074761;28;20024;-23
2023/12/06 08:23:37;;;;;;;4.60;1.92;;;;;;;;;;5075050;28;20024;-26
2023/12/06 08:26:06;;;;;;;7.50;1.77;;;;;;;;;;5075369;28;20024;-26
2023/12/06 08:28:33;;;;;;;4.47;1.70;;;;;;;;;;5074014;28;20024;-25
2023/12/06 08:30:59;;;;;;;3.72;1.15;;;;;;;;;;5074986;28;20028;-25
2023/12/06 08:33:25;;;;;;;4.53;1.70;;;;;;;;;;5075399;28;20036;-24
2023/12/06 08:35:51;;;;;;;2.08;1.85;;;;;;;;;;5074766;28;20096;-27
2023/12/06 08:38:18;;;;;;;5.28;1.90;;;;;;;;;;5075083;28;20025;-28
2023/12/06 08:40:44;;;;;;;1.80;1.35;;;;;;;;;;5074808;28;20404;-27
2023/12/06 08:43:10;;;;;;;6.28;1.75;;;;;;;;;;5073725;28;20071;-27
2023/12/06 08:45:37;;;;;;;2.67;1.95;;;;;;;;;;5075002;28;20028;-25
2023/12/06 08:48:04;;;;;;;4.05;1.83;;;;;;;;;;5075091;28;20031;-25
2023/12/06 08:50:30;;;;;;;2.03;1.30;;;;;;;;;;5074918;28;20020;-25
2023/12/06 08:52:56;;;;;;;8.65;1.83;;;;;;;;;;5074589;28;20025;-26
2023/12/06 08:55:22;;;;;;;5.72;1.90;;;;;;;;;;5074902;28;20435;-28
2023/12/06 08:57:50;;;;;;;3.92;1.17;;;;;;;;;;5074763;28;20020;-27
2023/12/06 09:00:17;;;;;;;2.70;1.50;;;;;;;;;;5074542;28;20025;-27
2023/12/06 09:02:43;;;;;;;1.88;1.42;;;;;;;;;;5074421;28;20051;-25
2023/12/06 09:05:12;;;;;;;5.30;1.50;;;;;;;;;;5074574;28;20024;-27
2023/12/06 09:07:39;;;;;;;4.07;1.63;;;;;;;;;;5074017;28;20528;-28
2023/12/06 09:10:05;;;;;;;5.43;1.60;;;;;;;;;;5074728;28;20021;-27
2023/12/06 09:12:31;;;;;;;6.30;1.65;;;;;;;;;;5074374;28;20024;-28
2023/12/06 09:14:58;;;;;;;3.53;2.05;;;;;;;;;;5074393;28;20031;-25
2023/12/06 09:17:24;;;;;;;1.95;1.80;;;;;;;;;;5074628;28;20036;-26
2023/12/06 09:19:51;;;;;;;2.22;1.90;;;;;;;;;;5074242;28;20463;-24
2023/12/06 09:22:19;;;;;;;2.95;2.03;;;;;;;;;;5074128;28;20459;-26
2023/12/06 09:24:45;;;;;;;4.97;1.67;;;;;;;;;;5074191;28;20020;-28
2023/12/06 09:27:12;;;;;;;1.90;1.70;;;;;;;;;;5074167;28;20082;-26
2023/12/06 09:29:39;;;;;;;5.68;2.28;;;;;;;;;;5074399;28;20024;-24
2023/12/06 09:32:05;;;;;;;5.10;2.17;;;;;;;;;;5074335;28;20031;-24
2023/12/06 09:34:32;;;;;;;2.15;1.95;;;;;;;;;;5074102;28;20029;-23
2023/12/06 09:36:58;;;;;;;3.22;1.90;;;;;;;;;;5074036;28;20027;-27
2023/12/06 09:39:24;;;;;;;4.38;1.58;;;;;;;;;;5074284;28;20016;-27
2023/12/06 09:41:50;;;;;;;4.82;1.65;;;;;;;;;;5073013;28;20358;-28
2023/12/06 09:44:16;;;;;;;4.25;1.90;;;;;;;;;;5074361;28;20021;-27
2023/12/06 09:46:47;;;;;;;3.47;1.70;;;;;;;;;;5074164;28;20138;-26
2023/12/06 09:49:13;;;;;;;2.55;1.58;;;;;;;;;;5073127;28;20523;-28
2023/12/06 09:51:39;;;;;;;1.67;1.30;;;;;;;;;;5074079;28;20021;-28
2023/12/06 09:54:05;;;;;;;3.00;1.52;;;;;;;;;;5072932;28;20032;-25
2023/12/06 09:56:33;;;;;;;1.63;1.48;;;;;;;;;;5073953;28;20104;-24
2023/12/06 09:58:59;;;;;;;4.40;1.80;;;;;;;;;;5073944;28;20052;-25
2023/12/06 10:01:25;;;;;;;2.10;1.13;;;;;;;;;;5073933;28;20024;-24
2023/12/06 10:03:51;;;;;;;3.05;1.67;;;;;;;;;;5073646;28;20119;-27
2023/12/06 10:06:17;;;;;;;4.72;2.13;;;;;;;;;;5074067;28;20099;-27
2023/12/06 10:08:50;;;;;;;5.45;1.92;;;;;;;;;;5073710;28;20343;-29
2023/12/06 10:11:17;;;;;;;2.58;2.13;;;;;;;;;;5073813;28;20028;-25
2023/12/06 10:13:43;;;;;;;3.30;1.75;;;;;;;;;;5074061;28;20417;-29
2023/12/06 10:16:16;;;;;;;5.10;2.20;;;;;;;;;;5074095;28;20024;-24
2023/12/06 10:18:42;;;;;;;1.65;1.55;;;;;;;;;;5075306;28;20023;-26
2023/12/06 10:21:09;;;;;;;4.47;1.90;;;;;;;;;;5077702;28;20343;-27
2023/12/06 10:23:35;;;;;;;2.90;1.52;;;;;;;;;;5077546;28;20012;-25
2023/12/06 10:26:03;;;;;;;3.55;1.35;;;;;;;;;;5077316;28;20486;-26
2023/12/06 10:28:29;;;;;;;3.10;2.50;;;;;;;;;;5077334;28;20032;-24
2023/12/06 10:30:59;;;;;;;5.07;1.42;;;;;;;;;;5077170;28;20036;-26
2023/12/06 10:33:26;;;;;;;5.53;1.63;;;;;;;;;;5077188;28;20101;-27
2023/12/06 10:35:54;;;;;;;2.67;1.65;;;;;;;;;;5076872;28;20033;-27
2023/12/06 10:38:20;;;;;;;9.32;1.50;;;;;;;;;;5077200;28;20020;-30
2023/12/06 10:40:46;;;;;;;3.60;1.80;;;;;;;;;;5076027;28;20097;-28
2023/12/06 10:43:13;;;;;;;3.80;2.10;;;;;;;;;;5077210;28;20351;-25
2023/12/06 10:45:40;;;;;;;6.07;2.88;;;;;;;;;;5076809;28;20025;-27
2023/12/06 10:48:07;;;;;;;2.05;1.27;;;;;;;;;;5077390;28;20427;-25
2023/12/06 10:50:34;;;;;;;2.30;1.58;;;;;;;;;;5075804;28;20032;-26
2023/12/06 10:53:01;;;;;;;2.58;1.50;;;;;;;;;;5076695;28;20021;-26
2023/12/06 10:55:32;;;;;;;2.20;1.73;;;;;;;;;;5076813;28;20051;-26
2023/12/06 10:58:01;;;;;;;8.45;1.50;;;;;;;;;;5077006;28;20364;-30
2023/12/06 11:00:28;;;;;;;3.78;2.35;;;;;;;;;;5076568;28;20033;-25
2023/12/06 11:02:55;;;;;;;2.47;1.70;;;;;;;;;;5076182;28;20537;-24
2023/12/06 11:05:22;;;;;;;3.50;1.90;;;;;;;;;;5076445;28;20085;-24
2023/12/06 11:07:48;;;;;;;4.68;1.92;;;;;;;;;;5076448;28;20048;-25
2023/12/06 11:10:36;;;;;;;3.58;1.45;;;;;;;;;;5076545;28;20021;-30
2023/12/06 11:13:20;;;;;;;2.63;1.33;;;;;;;;;;5076510;28;20020;-30
2023/12/06 11:15:53;;;;;;;1.50;1.35;;;;;;;;;;5076331;28;20016;-26
2023/12/06 11:18:24;;;;;;;4.22;1.88;;;;;;;;;;5076264;28;20028;-27
2023/12/06 11:20:53;;;;;;;3.28;1.60;;;;;;;;;;5076278;28;20470;-26
2023/12/06 11:23:21;;;;;;;4.07;1.38;;;;;;;;;;5076291;28;20021;-28
2023/12/06 11:25:49;;;;;;;5.90;1.80;;;;;;;;;;5075116;28;20021;-29
2023/12/06 11:28:17;;;;;;;11.13;1.65;;;;;;;;;;5076079;28;20160;-26
2023/12/06 11:30:49;;;;;;;1.92;1.30;;;;;;;;;;5075791;28;20031;-24
2023/12/06 11:33:15;;;;;;;2.25;1.70;;;;;;;;;;5075947;28;20400;-24
2023/12/06 11:35:59;;;;;;;2.88;1.85;;;;;;;;;;5075707;28;20513;-26
2023/12/06 11:38:40;;;;;;;9.77;2.42;;;;;;;;;;5076011;28;20024;-25
2023/12/06 11:41:06;;;;;;;6.68;3.03;;;;;;;;;;5075923;28;20351;-28
2023/12/06 11:43:39;;;;;;;2.15;1.30;;;;;;;;;;5074740;28;20035;-29
2023/12/06 11:46:07;;;;;;;2.30;1.45;;;;;;;;;;5076044;28;20029;-27
2023/12/06 11:48:35;;;;;;;4.10;1.55;;;;;;;;;;5075613;28;20363;-26
2023/12/06 11:51:01;;;;;;;7.03;2.13;;;;;;;;;;5074490;28;20464;-25
2023/12/06 11:53:28;;;;;;;3.05;2.45;;;;;;;;;;5075438;28;20452;-26
2023/12/06 11:55:55;;;;;;;3.90;1.80;;;;;;;;;;5075438;28;20035;-28
2023/12/06 11:58:21;;;;;;;6.45;2.08;;;;;;;;;;5075321;28;20082;-27
2023/12/06 12:00:48;;;;;;;3.22;2.42;;;;;;;;;;5075299;28;20365;-28
2023/12/06 12:03:16;;;;;;;3.33;1.70;;;;;;;;;;5075054;28;20072;-27
2023/12/06 12:05:42;;;;;;;2.60;1.60;;;;;;;;;;5075646;28;20450;-27
2023/12/06 12:08:08;;;;;;;4.80;1.90;;;;;;;;;;5075787;28;20024;-27
2023/12/06 12:10:35;;;;;;;5.38;1.95;;;;;;;;;;5075214;28;20077;-27
2023/12/06 12:13:01;;;;;;;3.70;1.83;;;;;;;;;;5075208;28;20443;-27
2023/12/06 12:15:27;;;;;;;4.30;1.40;;;;;;;;;;5075191;28;20052;-25
2023/12/06 12:17:54;;;;;;;3.83;2.63;;;;;;;;;;5075779;28;20033;-25
2023/12/06 12:20:20;;;;;;;5.55;1.70;;;;;;;;;;5075091;28;20074;-24
2023/12/06 12:22:51;;;;;;;3.53;1.92;;;;;;;;;;5074934;28;20217;-29
2023/12/06 12:25:18;;;;;;;4.07;1.87;;;;;;;;;;5075185;28;20356;-27
2023/12/06 12:27:45;;;;;;;6.50;1.77;;;;;;;;;;5075194;28;20674;-26
2023/12/06 12:30:12;;;;;;;3.53;2.28;;;;;;;;;;5074827;28;20024;-27
2023/12/06 12:32:50;;;;;;;7.63;2.10;;;;;;;;;;5074666;28;20028;-26
2023/12/06 12:35:17;;;;;;;6.68;2.17;;;;;;;;;;5074797;28;20128;-28
2023/12/06 12:37:44;;;;;;;4.80;2.83;;;;;;;;;;5073459;28;20536;-27
2023/12/06 12:40:11;;;;;;;2.72;1.88;;;;;;;;;;5074590;28;20039;-27
2023/12/06 12:42:41;;;;;;;2.25;1.65;;;;;;;;;;5074059;28;20024;-27
2023/12/06 12:45:11;;;;;;;3.42;1.60;;;;;;;;;;5074965;28;20074;-24
2023/12/06 12:47:38;;;;;;;3.00;1.40;;;;;;;;;;5074659;28;20098;-27
2023/12/06 12:50:05;;;;;;;1.73;1.63;;;;;;;;;;5073665;28;20048;-24
2023/12/06 12:52:35;;;;;;;7.00;1.88;;;;;;;;;;5074705;28;20024;-29
2023/12/06 12:55:03;;;;;;;2.47;2.28;;;;;;;;;;5074860;28;20414;-26
2023/12/06 12:57:34;;;;;;;3.03;1.80;;;;;;;;;;5074537;28;20058;-27
2023/12/06 13:00:00;;;;;;;4.50;1.60;;;;;;;;;;5074552;28;20501;-24
2023/12/06 13:02:27;;;;;;;4.35;1.88;;;;;;;;;;5074195;28;20346;-25
2023/12/06 13:04:53;;;;;;;5.32;1.80;;;;;;;;;;5074554;28;20067;-28
2023/12/06 13:07:19;;;;;;;2.35;1.70;;;;;;;;;;5074655;28;20025;-27
2023/12/06 13:09:47;;;;;;;4.60;1.42;;;;;;;;;;5074337;28;20020;-27
2023/12/06 13:12:13;;;;;;;2.17;1.67;;;;;;;;;;5074275;28;20054;-27
2023/12/06 13:14:39;;;;;;;10.30;2.10;;;;;;;;;;5073297;28;20033;-26
2023/12/06 13:17:05;;;;;;;12.25;2.03;;;;;;;;;;5073123;28;20024;-23
2023/12/06 13:19:31;;;;;;;9.55;1.90;;;;;;;;;;5073269;28;20016;-24
2023/12/06 13:21:58;;;;;;;2.53;1.70;;;;;;;;;;5074536;28;20371;-29
2023/12/06 13:24:26;;;;;;;9.90;2.00;;;;;;;;;;5074325;28;20350;-27
2023/12/06 13:26:52;;;;;;;2.20;2.00;;;;;;;;;;5074585;28;20103;-28
2023/12/06 13:29:18;;;;;;;6.35;1.90;;;;;;;;;;5074288;28;20103;-27
2023/12/06 13:31:45;;;;;;;4.07;1.73;;;;;;;;;;5073175;28;20025;-27
2023/12/06 13:34:11;;;;;;;3.40;2.40;;;;;;;;;;5074463;28;20025;-28
2023/12/06 13:36:38;;;;;;;1.70;1.60;;;;;;;;;;5074358;28;20406;-25
2023/12/06 13:39:06;;;;;;;2.30;1.63;;;;;;;;;;5074350;28;20466;-25
2023/12/06 13:41:32;;;;;;;4.68;1.67;;;;;;;;;;5074379;28;20032;-26
2023/12/06 13:43:58;;;;;;;3.78;2.15;;;;;;;;;;5074054;28;20032;-25
2023/12/06 13:46:24;;;;;;;6.15;2.05;;;;;;;;;;5074130;28;20114;-25
2023/12/06 13:48:50;;;;;;;6.82;2.55;;;;;;;;;;5072992;28;20425;-28
2023/12/06 13:51:17;;;;;;;5.55;2.40;;;;;;;;;;5072981;28;20163;-26
2023/12/06 13:53:43;;;;;;;4.43;1.75;;;;;;;;;;5075972;28;20028;-26
2023/12/06 13:56:09;;;;;;;4.38;1.80;;;;;;;;;;5078016;28;20443;-26
2023/12/06 13:58:35;;;;;;;4.75;2.25;;;;;;;;;;5078006;28;20466;-25
2023/12/06 14:01:03;;;;;;;6.50;2.00;;;;;;;;;;5077631;28;20021;-25
2023/12/06 14:03:29;;;;;;;5.20;2.00;;;;;;;;;;5077487;28;20379;-24
2023/12/06 14:05:56;;;;;;;5.22;1.65;;;;;;;;;;5076957;28;20032;-26
2023/12/06 14:08:24;;;;;;;1.90;1.73;;;;;;;;;;5077572;28;20329;-28
2023/12/06 14:10:51;;;;;;;7.10;2.30;;;;;;;;;;5077632;28;20036;-24
2023/12/06 14:13:17;;;;;;;8.15;1.85;;;;;;;;;;5077423;28;20455;-26
2023/12/06 14:15:45;;;;;;;2.33;1.70;;;;;;;;;;5077295;28;20028;-28
2023/12/06 14:18:11;;;;;;;2.47;1.60;;;;;;;;;;5077648;28;20080;-25
2023/12/06 14:20:37;;;;;;;2.28;1.73;;;;;;;;;;5077670;28;20031;-27
2023/12/06 14:23:03;;;;;;;2.08;1.88;;;;;;;;;;5076308;28;20028;-28
2023/12/06 14:25:30;;;;;;;2.42;2.08;;;;;;;;;;5078197;28;20059;-27
2023/12/06 14:27:56;;;;;;;3.67;1.98;;;;;;;;;;5077268;28;20036;-24
2023/12/06 14:30:22;;;;;;;3.53;1.90;;;;;;;;;;5077286;28;20051;-24
2023/12/06 14:32:49;;;;;;;4.97;1.83;;;;;;;;;;5077153;28;20046;-26
2023/12/06 14:35:15;;;;;;;2.58;1.70;;;;;;;;;;5077137;28;20078;-27
2023/12/06 14:37:41;;;;;;;3.28;1.33;;;;;;;;;;5076986;28;20048;-28
2023/12/06 14:40:08;;;;;;;7.45;2.00;;;;;;;;;;5076893;28;20329;-28